sensor_id;sensor_type;location;lat;lon;timestamp;temperature;humidity
43679;DHT22;29279;50.858;4.392;2024-01-30T00:01:58;12.50;99.90
43679;DHT22;29279;50.858;4.392;2024-01-30T00:04:24;12.40;99.90
43679;DHT22;29279;50.858;4.392;2024-01-30T00:06:51;12.30;99.90
43679;DHT22;29279;50.858;4.392;2024-01-30T00:09:18;12.40;99.90
43679;DHT22;29279;50.858;4.392;2024-01-30T00:11:45;12.40;99.90
43679;DHT22;29279;50.858;4.392;2024-01-30T00:14:11;12.40;99.90
43679;DHT22;29279;50.858;4.392;2024-01-30T00:16:36;12.50;99.90
43679;DHT22;29279;50.858;4.392;2024-01-30T00:19:02;12.60;99.90
43679;DHT22;29279;50.858;4.392;2024-01-30T00:21:29;12.50;99.90
43679;DHT22;29279;50.858;4.392;2024-01-30T00:23:54;12.50;99.90
43679;DHT22;29279;50.858;4.392;2024-01-30T00:26:20;12.70;99.90
43679;DHT22;29279;50.858;4.392;2024-01-30T00:28:46;12.70;99.90
43679;DHT22;29279;50.858;4.392;2024-01-30T00:31:12;12.70;99.90
43679;DHT22;29279;50.858;4.392;2024-01-30T00:33:41;12.70;99.90
43679;DHT22;29279;50.858;4.392;2024-01-30T00:36:08;12.80;99.90
43679;DHT22;29279;50.858;4.392;2024-01-30T00:38:34;12.80;99.90
43679;DHT22;29279;50.858;4.392;2024-01-30T00:41:00;12.70;99.90
43679;DHT22;29279;50.858;4.392;2024-01-30T00:43:25;12.70;99.90
43679;DHT22;29279;50.858;4.392;2024-01-30T00:45:51;12.70;99.90
43679;DHT22;29279;50.858;4.392;2024-01-30T00:48:20;12.60;99.90
43679;DHT22;29279;50.858;4.392;2024-01-30T00:50:46;12.60;99.90
43679;DHT22;29279;50.858;4.392;2024-01-30T00:53:12;12.60;99.90
43679;DHT22;29279;50.858;4.392;2024-01-30T00:55:37;12.70;99.90
43679;DHT22;29279;50.858;4.392;2024-01-30T00:58:03;12.70;99.90
43679;DHT22;29279;50.858;4.392;2024-01-30T01:00:30;12.70;99.90
43679;DHT22;29279;50.858;4.392;2024-01-30T01:02:56;12.70;99.90
43679;DHT22;29279;50.858;4.392;2024-01-30T01:05:22;12.70;99.90
43679;DHT22;29279;50.858;4.392;2024-01-30T01:07:48;12.80;99.90
43679;DHT22;29279;50.858;4.392;2024-01-30T01:10:14;12.70;99.90
43679;DHT22;29279;50.858;4.392;2024-01-30T01:12:41;12.80;99.90
43679;DHT22;29279;50.858;4.392;2024-01-30T01:15:07;12.80;99.90
43679;DHT22;29279;50.858;4.392;2024-01-30T01:17:35;12.80;99.90
43679;DHT22;29279;50.858;4.392;2024-01-30T01:20:02;12.70;99.90
43679;DHT22;29279;50.858;4.392;2024-01-30T01:22:28;12.70;99.90
43679;DHT22;29279;50.858;4.392;2024-01-30T01:24:53;12.70;99.90
43679;DHT22;29279;50.858;4.392;2024-01-30T01:27:19;12.80;99.90
43679;DHT22;29279;50.858;4.392;2024-01-30T01:29:45;12.90;99.90
43679;DHT22;29279;50.858;4.392;2024-01-30T01:32:11;12.80;99.90
43679;DHT22;29279;50.858;4.392;2024-01-30T01:34:36;12.90;99.90
43679;DHT22;29279;50.858;4.392;2024-01-30T01:37:02;13.00;99.90
43679;DHT22;29279;50.858;4.392;2024-01-30T01:39:28;13.00;99.90
43679;DHT22;29279;50.858;4.392;2024-01-30T01:41:53;13.00;99.90
43679;DHT22;29279;50.858;4.392;2024-01-30T01:44:19;12.90;99.90
43679;DHT22;29279;50.858;4.392;2024-01-30T01:46:45;13.00;99.90
43679;DHT22;29279;50.858;4.392;2024-01-30T01:49:11;13.10;99.90
43679;DHT22;29279;50.858;4.392;2024-01-30T01:51:41;13.10;99.90
43679;DHT22;29279;50.858;4.392;2024-01-30T01:54:08;13.10;99.90
43679;DHT22;29279;50.858;4.392;2024-01-30T01:56:34;13.10;99.90
43679;DHT22;29279;50.858;4.392;2024-01-30T01:59:06;13.20;99.90
43679;DHT22;29279;50.858;4.392;2024-01-30T02:01:33;13.30;99.90
43679;DHT22;29279;50.858;4.392;2024-01-30T02:04:00;13.20;99.90
43679;DHT22;29279;50.858;4.392;2024-01-30T02:06:26;13.20;99.90
43679;DHT22;29279;50.858;4.392;2024-01-30T02:08:52;13.10;99.90
43679;DHT22;29279;50.858;4.392;2024-01-30T02:11:19;13.10;99.90
43679;DHT22;29279;50.858;4.392;2024-01-30T02:13:45;13.00;99.90
43679;DHT22;29279;50.858;4.392;2024-01-30T02:16:10;13.00;99.90
43679;DHT22;29279;50.858;4.392;2024-01-30T02:18:36;13.00;99.90
43679;DHT22;29279;50.858;4.392;2024-01-30T02:21:07;12.90;99.90
43679;DHT22;29279;50.858;4.392;2024-01-30T02:23:34;12.90;99.90
43679;DHT22;29279;50.858;4.392;2024-01-30T02:26:00;12.90;99.90
43679;DHT22;29279;50.858;4.392;2024-01-30T02:28:26;13.00;99.90
43679;DHT22;29279;50.858;4.392;2024-01-30T02:30:53;12.90;99.90
43679;DHT22;29279;50.858;4.392;2024-01-30T02:33:18;12.90;99.90
43679;DHT22;29279;50.858;4.392;2024-01-30T02:35:44;12.90;99.90
43679;DHT22;29279;50.858;4.392;2024-01-30T02:38:10;13.00;99.90
43679;DHT22;29279;50.858;4.392;2024-01-30T02:40:36;13.00;99.90
43679;DHT22;29279;50.858;4.392;2024-01-30T02:43:02;12.90;99.90
43679;DHT22;29279;50.858;4.392;2024-01-30T02:45:28;12.80;99.90
43679;DHT22;29279;50.858;4.392;2024-01-30T02:47:54;12.80;99.90
43679;DHT22;29279;50.858;4.392;2024-01-30T02:50:22;12.90;99.90
43679;DHT22;29279;50.858;4.392;2024-01-30T02:52:48;13.00;99.90
43679;DHT22;29279;50.858;4.392;2024-01-30T02:55:14;13.00;99.90
43679;DHT22;29279;50.858;4.392;2024-01-30T02:57:42;12.80;99.90
43679;DHT22;29279;50.858;4.392;2024-01-30T03:00:08;12.70;99.90
43679;DHT22;29279;50.858;4.392;2024-01-30T03:02:35;12.70;99.90
43679;DHT22;29279;50.858;4.392;2024-01-30T03:05:01;12.90;99.90
43679;DHT22;29279;50.858;4.392;2024-01-30T03:07:27;12.80;99.90
43679;DHT22;29279;50.858;4.392;2024-01-30T03:09:53;12.80;99.90
43679;DHT22;29279;50.858;4.392;2024-01-30T03:12:21;12.80;99.90
43679;DHT22;29279;50.858;4.392;2024-01-30T03:14:46;12.80;99.90
43679;DHT22;29279;50.858;4.392;2024-01-30T03:17:12;12.80;99.90
43679;DHT22;29279;50.858;4.392;2024-01-30T03:19:38;12.80;99.90
43679;DHT22;29279;50.858;4.392;2024-01-30T03:22:03;12.80;99.90
43679;DHT22;29279;50.858;4.392;2024-01-30T03:24:29;12.80;99.90
43679;DHT22;29279;50.858;4.392;2024-01-30T03:26:58;12.70;99.90
43679;DHT22;29279;50.858;4.392;2024-01-30T03:29:23;12.70;99.90
43679;DHT22;29279;50.858;4.392;2024-01-30T03:31:49;12.80;99.90
43679;DHT22;29279;50.858;4.392;2024-01-30T03:34:15;12.80;99.90
43679;DHT22;29279;50.858;4.392;2024-01-30T03:36:40;12.80;99.90
43679;DHT22;29279;50.858;4.392;2024-01-30T03:39:06;12.90;99.90
43679;DHT22;29279;50.858;4.392;2024-01-30T03:41:32;13.00;99.90
43679;DHT22;29279;50.858;4.392;2024-01-30T03:43:59;12.90;99.90
43679;DHT22;29279;50.858;4.392;2024-01-30T03:46:25;13.00;99.90
43679;DHT22;29279;50.858;4.392;2024-01-30T03:48:51;13.00;99.90
43679;DHT22;29279;50.858;4.392;2024-01-30T03:51:16;13.00;99.90
43679;DHT22;29279;50.858;4.392;2024-01-30T03:53:43;13.00;99.90
43679;DHT22;29279;50.858;4.392;2024-01-30T03:56:09;13.10;99.90
43679;DHT22;29279;50.858;4.392;2024-01-30T03:58:35;13.00;99.90
43679;DHT22;29279;50.858;4.392;2024-01-30T04:01:00;13.00;99.90
43679;DHT22;29279;50.858;4.392;2024-01-30T04:03:26;13.00;99.90
43679;DHT22;29279;50.858;4.392;2024-01-30T04:05:52;12.90;99.90
43679;DHT22;29279;50.858;4.392;2024-01-30T04:08:18;12.80;99.90
43679;DHT22;29279;50.858;4.392;2024-01-30T04:10:44;12.80;99.90
43679;DHT22;29279;50.858;4.392;2024-01-30T04:13:10;12.80;99.90
43679;DHT22;29279;50.858;4.392;2024-01-30T04:15:36;12.70;99.90
43679;DHT22;29279;50.858;4.392;2024-01-30T04:18:04;12.70;99.90
43679;DHT22;29279;50.858;4.392;2024-01-30T04:20:30;12.70;99.90
43679;DHT22;29279;50.858;4.392;2024-01-30T04:22:56;12.80;99.90
43679;DHT22;29279;50.858;4.392;2024-01-30T04:25:21;12.80;99.90
43679;DHT22;29279;50.858;4.392;2024-01-30T04:27:47;12.80;99.90
43679;DHT22;29279;50.858;4.392;2024-01-30T04:30:13;12.80;99.90
43679;DHT22;29279;50.858;4.392;2024-01-30T04:32:39;13.00;99.90
43679;DHT22;29279;50.858;4.392;2024-01-30T04:35:05;12.90;99.90
43679;DHT22;29279;50.858;4.392;2024-01-30T04:37:31;12.80;99.90
43679;DHT22;29279;50.858;4.392;2024-01-30T04:39:56;12.70;99.90
43679;DHT22;29279;50.858;4.392;2024-01-30T04:42:22;12.80;99.90
43679;DHT22;29279;50.858;4.392;2024-01-30T04:44:48;12.80;99.90
43679;DHT22;29279;50.858;4.392;2024-01-30T04:47:14;12.90;99.90
43679;DHT22;29279;50.858;4.392;2024-01-30T04:49:39;12.80;99.90
43679;DHT22;29279;50.858;4.392;2024-01-30T04:52:06;12.80;99.90
43679;DHT22;29279;50.858;4.392;2024-01-30T04:54:32;13.00;99.90
43679;DHT22;29279;50.858;4.392;2024-01-30T04:56:57;13.00;99.90
43679;DHT22;29279;50.858;4.392;2024-01-30T04:59:24;13.10;99.90
43679;DHT22;29279;50.858;4.392;2024-01-30T05:01:49;13.00;99.90
43679;DHT22;29279;50.858;4.392;2024-01-30T05:04:15;13.00;99.90
43679;DHT22;29279;50.858;4.392;2024-01-30T05:06:41;13.10;99.90
43679;DHT22;29279;50.858;4.392;2024-01-30T05:09:10;13.20;99.90
43679;DHT22;29279;50.858;4.392;2024-01-30T05:11:40;13.10;99.90
43679;DHT22;29279;50.858;4.392;2024-01-30T05:14:06;13.10;99.90
43679;DHT22;29279;50.858;4.392;2024-01-30T05:16:32;13.00;99.90
43679;DHT22;29279;50.858;4.392;2024-01-30T05:18:58;13.00;99.90
43679;DHT22;29279;50.858;4.392;2024-01-30T05:21:24;13.20;99.90
43679;DHT22;29279;50.858;4.392;2024-01-30T05:23:50;13.10;99.90
43679;DHT22;29279;50.858;4.392;2024-01-30T05:26:16;13.00;99.90
43679;DHT22;29279;50.858;4.392;2024-01-30T05:28:42;13.00;99.90
43679;DHT22;29279;50.858;4.392;2024-01-30T05:31:10;13.10;99.90
43679;DHT22;29279;50.858;4.392;2024-01-30T05:33:35;13.20;99.90
43679;DHT22;29279;50.858;4.392;2024-01-30T05:36:01;13.20;99.90
43679;DHT22;29279;50.858;4.392;2024-01-30T05:38:27;13.00;99.90
43679;DHT22;29279;50.858;4.392;2024-01-30T05:40:52;12.90;99.90
43679;DHT22;29279;50.858;4.392;2024-01-30T05:43:18;13.00;99.90
43679;DHT22;29279;50.858;4.392;2024-01-30T05:45:44;12.90;99.90
43679;DHT22;29279;50.858;4.392;2024-01-30T05:48:09;12.90;99.90
43679;DHT22;29279;50.858;4.392;2024-01-30T05:50:36;12.80;99.90
43679;DHT22;29279;50.858;4.392;2024-01-30T05:53:02;12.80;99.90
43679;DHT22;29279;50.858;4.392;2024-01-30T05:55:28;12.80;99.90
43679;DHT22;29279;50.858;4.392;2024-01-30T05:57:53;12.80;99.90
43679;DHT22;29279;50.858;4.392;2024-01-30T06:00:19;12.80;99.90
43679;DHT22;29279;50.858;4.392;2024-01-30T06:02:45;12.80;99.90
43679;DHT22;29279;50.858;4.392;2024-01-30T06:05:10;12.80;99.90
43679;DHT22;29279;50.858;4.392;2024-01-30T06:07:39;12.80;99.90
43679;DHT22;29279;50.858;4.392;2024-01-30T06:10:06;12.90;99.90
43679;DHT22;29279;50.858;4.392;2024-01-30T06:12:34;12.80;99.90
43679;DHT22;29279;50.858;4.392;2024-01-30T06:15:00;12.70;99.90
43679;DHT22;29279;50.858;4.392;2024-01-30T06:17:26;12.70;99.90
43679;DHT22;29279;50.858;4.392;2024-01-30T06:19:51;12.60;99.90
43679;DHT22;29279;50.858;4.392;2024-01-30T06:22:17;12.60;99.90
43679;DHT22;29279;50.858;4.392;2024-01-30T06:24:43;12.60;99.90
43679;DHT22;29279;50.858;4.392;2024-01-30T06:27:15;12.60;99.90
43679;DHT22;29279;50.858;4.392;2024-01-30T06:29:43;12.50;99.90
43679;DHT22;29279;50.858;4.392;2024-01-30T06:32:09;12.60;99.90
43679;DHT22;29279;50.858;4.392;2024-01-30T06:34:34;12.60;99.90
43679;DHT22;29279;50.858;4.392;2024-01-30T06:37:00;12.60;99.90
43679;DHT22;29279;50.858;4.392;2024-01-30T06:39:26;12.60;99.90
43679;DHT22;29279;50.858;4.392;2024-01-30T06:41:52;12.60;99.90
43679;DHT22;29279;50.858;4.392;2024-01-30T06:44:18;12.50;99.90
43679;DHT22;29279;50.858;4.392;2024-01-30T06:46:43;12.50;99.90
43679;DHT22;29279;50.858;4.392;2024-01-30T06:49:09;12.60;99.90
43679;DHT22;29279;50.858;4.392;2024-01-30T06:51:35;12.70;99.90
43679;DHT22;29279;50.858;4.392;2024-01-30T06:54:00;12.70;99.90
43679;DHT22;29279;50.858;4.392;2024-01-30T06:56:26;12.70;99.90
43679;DHT22;29279;50.858;4.392;2024-01-30T06:58:52;12.70;99.90
43679;DHT22;29279;50.858;4.392;2024-01-30T07:01:18;12.70;99.90
43679;DHT22;29279;50.858;4.392;2024-01-30T07:03:44;12.60;99.90
43679;DHT22;29279;50.858;4.392;2024-01-30T07:06:10;12.60;99.90
43679;DHT22;29279;50.858;4.392;2024-01-30T07:08:36;12.60;99.90
43679;DHT22;29279;50.858;4.392;2024-01-30T07:11:07;12.50;99.90
43679;DHT22;29279;50.858;4.392;2024-01-30T07:13:34;12.60;99.90
43679;DHT22;29279;50.858;4.392;2024-01-30T07:16:00;12.60;99.90
43679;DHT22;29279;50.858;4.392;2024-01-30T07:18:26;12.50;99.90
43679;DHT22;29279;50.858;4.392;2024-01-30T07:20:51;12.50;99.90
43679;DHT22;29279;50.858;4.392;2024-01-30T07:23:17;12.50;99.90
43679;DHT22;29279;50.858;4.392;2024-01-30T07:25:46;12.50;99.90
43679;DHT22;29279;50.858;4.392;2024-01-30T07:28:14;12.50;99.90
43679;DHT22;29279;50.858;4.392;2024-01-30T07:30:43;12.50;99.90
43679;DHT22;29279;50.858;4.392;2024-01-30T07:33:09;12.50;99.90
43679;DHT22;29279;50.858;4.392;2024-01-30T07:35:36;12.50;99.90
43679;DHT22;29279;50.858;4.392;2024-01-30T07:38:01;12.50;99.90
43679;DHT22;29279;50.858;4.392;2024-01-30T07:40:27;12.40;99.90
43679;DHT22;29279;50.858;4.392;2024-01-30T07:42:53;12.50;99.90
43679;DHT22;29279;50.858;4.392;2024-01-30T07:45:19;12.50;99.90
43679;DHT22;29279;50.858;4.392;2024-01-30T07:47:50;12.50;99.90
43679;DHT22;29279;50.858;4.392;2024-01-30T07:50:15;12.50;99.90
43679;DHT22;29279;50.858;4.392;2024-01-30T07:52:42;12.50;99.90
43679;DHT22;29279;50.858;4.392;2024-01-30T07:55:08;12.50;99.90
43679;DHT22;29279;50.858;4.392;2024-01-30T07:57:34;12.60;99.90
43679;DHT22;29279;50.858;4.392;2024-01-30T08:00:00;12.50;99.90
43679;DHT22;29279;50.858;4.392;2024-01-30T08:02:26;12.60;99.90
43679;DHT22;29279;50.858;4.392;2024-01-30T08:04:51;12.60;99.90
43679;DHT22;29279;50.858;4.392;2024-01-30T08:07:17;12.50;99.90
43679;DHT22;29279;50.858;4.392;2024-01-30T08:09:43;12.40;99.90
43679;DHT22;29279;50.858;4.392;2024-01-30T08:12:12;12.40;99.90
43679;DHT22;29279;50.858;4.392;2024-01-30T08:14:39;12.40;99.90
43679;DHT22;29279;50.858;4.392;2024-01-30T08:17:05;12.30;99.90
43679;DHT22;29279;50.858;4.392;2024-01-30T08:19:33;12.40;99.90
43679;DHT22;29279;50.858;4.392;2024-01-30T08:21:59;12.50;99.90
43679;DHT22;29279;50.858;4.392;2024-01-30T08:24:25;12.50;99.90
43679;DHT22;29279;50.858;4.392;2024-01-30T08:26:51;12.50;99.90
43679;DHT22;29279;50.858;4.392;2024-01-30T08:29:16;12.50;99.90
43679;DHT22;29279;50.858;4.392;2024-01-30T08:31:42;12.50;99.90
43679;DHT22;29279;50.858;4.392;2024-01-30T08:34:11;12.70;99.90
43679;DHT22;29279;50.858;4.392;2024-01-30T08:36:37;12.80;99.90
43679;DHT22;29279;50.858;4.392;2024-01-30T08:39:02;12.80;99.90
43679;DHT22;29279;50.858;4.392;2024-01-30T08:41:28;12.80;99.90
43679;DHT22;29279;50.858;4.392;2024-01-30T08:43:54;12.70;99.90
43679;DHT22;29279;50.858;4.392;2024-01-30T08:46:19;12.70;99.90
43679;DHT22;29279;50.858;4.392;2024-01-30T08:48:46;12.70;99.90
43679;DHT22;29279;50.858;4.392;2024-01-30T08:51:13;12.80;99.90
43679;DHT22;29279;50.858;4.392;2024-01-30T08:53:39;12.80;99.90
43679;DHT22;29279;50.858;4.392;2024-01-30T08:56:06;12.90;99.90
43679;DHT22;29279;50.858;4.392;2024-01-30T08:58:32;12.90;99.90
43679;DHT22;29279;50.858;4.392;2024-01-30T09:00:58;12.90;99.90
43679;DHT22;29279;50.858;4.392;2024-01-30T09:03:24;12.80;99.90
43679;DHT22;29279;50.858;4.392;2024-01-30T09:05:53;12.90;99.90
43679;DHT22;29279;50.858;4.392;2024-01-30T09:08:19;12.90;99.90
43679;DHT22;29279;50.858;4.392;2024-01-30T09:10:44;12.90;99.90
43679;DHT22;29279;50.858;4.392;2024-01-30T09:13:10;12.80;99.90
43679;DHT22;29279;50.858;4.392;2024-01-30T09:15:36;12.80;99.90
43679;DHT22;29279;50.858;4.392;2024-01-30T09:18:01;12.80;99.90
43679;DHT22;29279;50.858;4.392;2024-01-30T09:20:27;12.80;99.90
43679;DHT22;29279;50.858;4.392;2024-01-30T09:22:53;12.70;99.90
43679;DHT22;29279;50.858;4.392;2024-01-30T09:25:19;12.70;99.90
43679;DHT22;29279;50.858;4.392;2024-01-30T09:27:46;12.60;99.90
43679;DHT22;29279;50.858;4.392;2024-01-30T09:30:15;12.60;99.90
43679;DHT22;29279;50.858;4.392;2024-01-30T09:32:41;12.60;99.90
43679;DHT22;29279;50.858;4.392;2024-01-30T09:35:07;12.50;99.90
43679;DHT22;29279;50.858;4.392;2024-01-30T09:37:33;12.60;99.90
43679;DHT22;29279;50.858;4.392;2024-01-30T09:39:58;12.60;99.90
43679;DHT22;29279;50.858;4.392;2024-01-30T09:44:51;12.60;99.90
43679;DHT22;29279;50.858;4.392;2024-01-30T09:47:17;12.70;99.90
43679;DHT22;29279;50.858;4.392;2024-01-30T09:49:44;12.70;99.90
43679;DHT22;29279;50.858;4.392;2024-01-30T09:52:09;12.60;99.90
43679;DHT22;29279;50.858;4.392;2024-01-30T09:54:36;12.50;99.90
43679;DHT22;29279;50.858;4.392;2024-01-30T09:57:03;12.40;99.90
43679;DHT22;29279;50.858;4.392;2024-01-30T09:59:29;12.30;99.90
43679;DHT22;29279;50.858;4.392;2024-01-30T10:01:55;12.40;99.90
43679;DHT22;29279;50.858;4.392;2024-01-30T10:04:22;12.50;99.90
43679;DHT22;29279;50.858;4.392;2024-01-30T10:06:47;12.40;99.90
43679;DHT22;29279;50.858;4.392;2024-01-30T10:09:13;12.40;99.90
43679;DHT22;29279;50.858;4.392;2024-01-30T10:11:39;12.30;99.90
43679;DHT22;29279;50.858;4.392;2024-01-30T10:14:05;12.30;99.90
43679;DHT22;29279;50.858;4.392;2024-01-30T10:16:30;12.30;99.90
43679;DHT22;29279;50.858;4.392;2024-01-30T10:18:56;12.30;99.90
43679;DHT22;29279;50.858;4.392;2024-01-30T10:21:22;12.30;99.90
43679;DHT22;29279;50.858;4.392;2024-01-30T10:23:49;12.40;99.90
43679;DHT22;29279;50.858;4.392;2024-01-30T10:26:16;12.40;99.90
43679;DHT22;29279;50.858;4.392;2024-01-30T10:28:42;12.40;99.90
43679;DHT22;29279;50.858;4.392;2024-01-30T10:31:08;12.30;99.90
43679;DHT22;29279;50.858;4.392;2024-01-30T10:33:34;12.20;99.90
43679;DHT22;29279;50.858;4.392;2024-01-30T10:36:04;12.20;99.90
43679;DHT22;29279;50.858;4.392;2024-01-30T10:38:31;12.10;99.90
43679;DHT22;29279;50.858;4.392;2024-01-30T10:40:59;12.10;99.90
43679;DHT22;29279;50.858;4.392;2024-01-30T10:43:33;12.10;99.90
43679;DHT22;29279;50.858;4.392;2024-01-30T10:46:19;12.20;99.90
43679;DHT22;29279;50.858;4.392;2024-01-30T10:49:12;12.20;99.90
43679;DHT22;29279;50.858;4.392;2024-01-30T10:51:41;12.20;99.90
43679;DHT22;29279;50.858;4.392;2024-01-30T10:54:08;12.30;99.90
43679;DHT22;29279;50.858;4.392;2024-01-30T10:56:36;12.30;99.90
43679;DHT22;29279;50.858;4.392;2024-01-30T10:59:03;12.30;99.90
43679;DHT22;29279;50.858;4.392;2024-01-30T11:01:30;12.10;99.90
43679;DHT22;29279;50.858;4.392;2024-01-30T11:03:56;11.90;99.90
43679;DHT22;29279;50.858;4.392;2024-01-30T11:06:23;11.80;99.90
43679;DHT22;29279;50.858;4.392;2024-01-30T11:09:05;11.70;99.90
43679;DHT22;29279;50.858;4.392;2024-01-30T11:11:51;11.70;99.90
43679;DHT22;29279;50.858;4.392;2024-01-30T11:14:23;11.70;99.90
43679;DHT22;29279;50.858;4.392;2024-01-30T11:16:49;11.70;99.90
43679;DHT22;29279;50.858;4.392;2024-01-30T11:19:15;11.70;99.90
43679;DHT22;29279;50.858;4.392;2024-01-30T11:21:43;11.80;99.90
43679;DHT22;29279;50.858;4.392;2024-01-30T11:24:09;11.90;99.90
43679;DHT22;29279;50.858;4.392;2024-01-30T11:26:35;11.90;99.90
43679;DHT22;29279;50.858;4.392;2024-01-30T11:29:03;12.00;99.90
43679;DHT22;29279;50.858;4.392;2024-01-30T11:31:30;12.00;99.90
43679;DHT22;29279;50.858;4.392;2024-01-30T11:33:56;12.00;99.90
43679;DHT22;29279;50.858;4.392;2024-01-30T11:36:26;11.90;99.90
43679;DHT22;29279;50.858;4.392;2024-01-30T11:38:54;11.80;99.90
43679;DHT22;29279;50.858;4.392;2024-01-30T11:41:20;11.90;99.90
43679;DHT22;29279;50.858;4.392;2024-01-30T11:43:56;12.00;99.90
43679;DHT22;29279;50.858;4.392;2024-01-30T11:46:25;12.10;99.90
43679;DHT22;29279;50.858;4.392;2024-01-30T11:48:50;12.10;99.90
43679;DHT22;29279;50.858;4.392;2024-01-30T11:51:17;12.20;99.90
43679;DHT22;29279;50.858;4.392;2024-01-30T11:53:49;12.50;99.90
43679;DHT22;29279;50.858;4.392;2024-01-30T11:56:15;13.00;99.90
43679;DHT22;29279;50.858;4.392;2024-01-30T11:58:44;14.00;99.90
43679;DHT22;29279;50.858;4.392;2024-01-30T12:01:11;15.80;99.90
43679;DHT22;29279;50.858;4.392;2024-01-30T12:03:37;16.30;99.90
43679;DHT22;29279;50.858;4.392;2024-01-30T12:06:03;16.00;99.90
43679;DHT22;29279;50.858;4.392;2024-01-30T12:08:29;16.10;99.90
43679;DHT22;29279;50.858;4.392;2024-01-30T12:10:57;15.20;99.90
43679;DHT22;29279;50.858;4.392;2024-01-30T12:13:25;14.90;99.90
43679;DHT22;29279;50.858;4.392;2024-01-30T12:15:51;15.50;99.90
43679;DHT22;29279;50.858;4.392;2024-01-30T12:18:19;16.90;99.90
43679;DHT22;29279;50.858;4.392;2024-01-30T12:20:45;18.20;99.90
43679;DHT22;29279;50.858;4.392;2024-01-30T12:23:13;18.90;99.90
43679;DHT22;29279;50.858;4.392;2024-01-30T12:25:39;18.90;99.90
43679;DHT22;29279;50.858;4.392;2024-01-30T12:28:05;18.10;99.90
43679;DHT22;29279;50.858;4.392;2024-01-30T12:30:31;16.10;99.90
43679;DHT22;29279;50.858;4.392;2024-01-30T12:32:56;15.00;99.90
43679;DHT22;29279;50.858;4.392;2024-01-30T12:35:23;14.60;99.90
43679;DHT22;29279;50.858;4.392;2024-01-30T12:37:49;14.00;99.90
43679;DHT22;29279;50.858;4.392;2024-01-30T12:40:15;13.70;99.90
43679;DHT22;29279;50.858;4.392;2024-01-30T12:42:42;15.20;99.90
43679;DHT22;29279;50.858;4.392;2024-01-30T12:45:08;17.20;99.90
43679;DHT22;29279;50.858;4.392;2024-01-30T12:47:34;18.80;99.90
43679;DHT22;29279;50.858;4.392;2024-01-30T12:50:00;19.80;98.80
43679;DHT22;29279;50.858;4.392;2024-01-30T12:52:26;19.40;98.30
43679;DHT22;29279;50.858;4.392;2024-01-30T12:54:52;18.40;99.00
43679;DHT22;29279;50.858;4.392;2024-01-30T12:57:18;18.50;99.50
43679;DHT22;29279;50.858;4.392;2024-01-30T12:59:44;19.50;98.20
43679;DHT22;29279;50.858;4.392;2024-01-30T13:02:32;18.70;98.70
43679;DHT22;29279;50.858;4.392;2024-01-30T13:05:11;19.00;98.80
43679;DHT22;29279;50.858;4.392;2024-01-30T13:07:37;20.20;97.30
43679;DHT22;29279;50.858;4.392;2024-01-30T13:10:08;20.60;96.20
43679;DHT22;29279;50.858;4.392;2024-01-30T13:12:34;19.90;96.90
43679;DHT22;29279;50.858;4.392;2024-01-30T13:15:01;19.20;97.40
43679;DHT22;29279;50.858;4.392;2024-01-30T13:17:27;19.10;97.80
43679;DHT22;29279;50.858;4.392;2024-01-30T13:19:53;18.00;99.10
43679;DHT22;29279;50.858;4.392;2024-01-30T13:22:20;17.00;99.90
43679;DHT22;29279;50.858;4.392;2024-01-30T13:24:48;16.10;99.90
43679;DHT22;29279;50.858;4.392;2024-01-30T13:27:16;15.40;99.90
43679;DHT22;29279;50.858;4.392;2024-01-30T13:29:41;14.80;99.90
43679;DHT22;29279;50.858;4.392;2024-01-30T13:32:07;14.20;99.90
43679;DHT22;29279;50.858;4.392;2024-01-30T13:34:33;13.60;99.90
43679;DHT22;29279;50.858;4.392;2024-01-30T13:36:58;13.40;99.90
43679;DHT22;29279;50.858;4.392;2024-01-30T13:39:25;13.10;99.90
43679;DHT22;29279;50.858;4.392;2024-01-30T13:41:50;12.80;99.90
43679;DHT22;29279;50.858;4.392;2024-01-30T13:44:16;12.60;99.90
43679;DHT22;29279;50.858;4.392;2024-01-30T13:46:43;12.50;99.90
43679;DHT22;29279;50.858;4.392;2024-01-30T13:49:08;12.60;99.90
43679;DHT22;29279;50.858;4.392;2024-01-30T13:51:34;12.60;99.90
43679;DHT22;29279;50.858;4.392;2024-01-30T13:54:00;12.60;99.90
43679;DHT22;29279;50.858;4.392;2024-01-30T13:56:26;12.40;99.90
43679;DHT22;29279;50.858;4.392;2024-01-30T13:58:52;12.30;99.90
43679;DHT22;29279;50.858;4.392;2024-01-30T14:01:18;12.20;99.90
43679;DHT22;29279;50.858;4.392;2024-01-30T14:03:44;12.10;99.90
43679;DHT22;29279;50.858;4.392;2024-01-30T14:06:11;12.10;99.90
43679;DHT22;29279;50.858;4.392;2024-01-30T14:08:37;12.00;99.90
43679;DHT22;29279;50.858;4.392;2024-01-30T14:11:03;12.00;99.90
43679;DHT22;29279;50.858;4.392;2024-01-30T14:13:29;12.00;99.90
43679;DHT22;29279;50.858;4.392;2024-01-30T14:15:56;11.90;99.90
43679;DHT22;29279;50.858;4.392;2024-01-30T14:18:22;11.90;99.90
43679;DHT22;29279;50.858;4.392;2024-01-30T14:20:47;11.80;99.90
43679;DHT22;29279;50.858;4.392;2024-01-30T14:23:18;11.70;99.90
43679;DHT22;29279;50.858;4.392;2024-01-30T14:25:44;11.50;99.90
43679;DHT22;29279;50.858;4.392;2024-01-30T14:28:10;11.40;99.90
43679;DHT22;29279;50.858;4.392;2024-01-30T14:30:35;11.40;99.90
43679;DHT22;29279;50.858;4.392;2024-01-30T14:33:01;11.40;99.90
43679;DHT22;29279;50.858;4.392;2024-01-30T14:35:27;11.40;99.90
43679;DHT22;29279;50.858;4.392;2024-01-30T14:37:53;11.40;99.90
43679;DHT22;29279;50.858;4.392;2024-01-30T14:40:19;11.40;99.90
43679;DHT22;29279;50.858;4.392;2024-01-30T14:42:45;11.20;99.90
43679;DHT22;29279;50.858;4.392;2024-01-30T14:45:11;11.20;99.90
43679;DHT22;29279;50.858;4.392;2024-01-30T14:47:37;11.20;99.90
43679;DHT22;29279;50.858;4.392;2024-01-30T14:50:03;11.20;99.90
43679;DHT22;29279;50.858;4.392;2024-01-30T14:52:37;11.20;99.90
43679;DHT22;29279;50.858;4.392;2024-01-30T14:55:05;11.20;99.90
43679;DHT22;29279;50.858;4.392;2024-01-30T14:57:31;11.30;99.90
43679;DHT22;29279;50.858;4.392;2024-01-30T15:00:00;11.30;99.90
43679;DHT22;29279;50.858;4.392;2024-01-30T15:02:25;11.40;99.90
43679;DHT22;29279;50.858;4.392;2024-01-30T15:04:51;11.20;99.90
43679;DHT22;29279;50.858;4.392;2024-01-30T15:07:18;11.20;99.90
43679;DHT22;29279;50.858;4.392;2024-01-30T15:09:44;11.00;99.90
43679;DHT22;29279;50.858;4.392;2024-01-30T15:12:11;10.90;99.90
43679;DHT22;29279;50.858;4.392;2024-01-30T15:14:36;11.00;99.90
43679;DHT22;29279;50.858;4.392;2024-01-30T15:17:02;10.90;99.90
43679;DHT22;29279;50.858;4.392;2024-01-30T15:19:28;10.90;99.90
43679;DHT22;29279;50.858;4.392;2024-01-30T15:21:54;10.70;99.90
43679;DHT22;29279;50.858;4.392;2024-01-30T15:24:19;10.60;99.90
43679;DHT22;29279;50.858;4.392;2024-01-30T15:26:50;10.60;99.90
43679;DHT22;29279;50.858;4.392;2024-01-30T15:29:16;10.60;99.90